sensor_id;sensor_type;location;lat;lon;timestamp;pressure;altitude;pressure_sealevel;temperature;humidity
33913;BME280;20200;52.084;5.224;2023-04-21T00:00:12;153659.0;;;19.43;40.68
33913;BME280;20200;52.084;5.224;2023-04-21T00:03:25;153735.0;;;19.73;40.21
33913;BME280;20200;52.084;5.224;2023-04-21T00:05:01;153763.0;;;19.84;40.1
33913;BME280;20200;52.084;5.224;2023-04-21T00:06:37;153701.0;;;19.61;40.69
33913;BME280;20200;52.084;5.224;2023-04-21T00:09:50;153698.0;;;19.59;40.74
33913;BME280;20200;52.084;5.224;2023-04-21T00:11:27;153657.0;;;19.43;40.62
33913;BME280;20200;52.084;5.224;2023-04-21T00:13:03;153728.0;;;19.7;40.75
33913;BME280;20200;52.084;5.224;2023-04-21T00:14:39;153782.0;;;19.91;40.15
33913;BME280;20200;52.084;5.224;2023-04-21T00:17:51;153776.0;;;19.89;40.19
33913;BME280;20200;52.084;5.224;2023-04-21T00:19:27;153861.0;;;20.23;39.6
33913;BME280;20200;52.084;5.224;2023-04-21T00:21:04;153780.0;;;19.91;40.5
33913;BME280;20200;52.084;5.224;2023-04-21T00:24:16;153898.0;;;20.38;39.56
33913;BME280;20200;52.084;5.224;2023-04-21T00:25:52;153878.0;;;20.29;39.93
33913;BME280;20200;52.084;5.224;2023-04-21T00:27:28;153839.0;;;20.14;40.17
33913;BME280;20200;52.084;5.224;2023-04-21T00:30:40;153839.0;;;20.14;40.08
33913;BME280;20200;52.084;5.224;2023-04-21T00:32:16;153852.0;;;20.2;40.03
33913;BME280;20200;52.084;5.224;2023-04-21T00:33:52;153964.0;;;20.64;39.26
33913;BME280;20200;52.084;5.224;2023-04-21T00:37:05;154009.0;;;20.81;38.5
33913;BME280;20200;52.084;5.224;2023-04-21T00:38:41;153918.0;;;20.46;39.46
33913;BME280;20200;52.084;5.224;2023-04-21T00:40:17;153906.0;;;20.41;39.71
33913;BME280;20200;52.084;5.224;2023-04-21T00:41:53;153841.0;;;20.16;40.21
33913;BME280;20200;52.084;5.224;2023-04-21T00:45:06;153853.0;;;20.2;39.71
33913;BME280;20200;52.084;5.224;2023-04-21T00:46:42;153803.0;;;20.0;40.39
33913;BME280;20200;52.084;5.224;2023-04-21T00:48:18;153822.0;;;20.07;40.29
33913;BME280;20200;52.084;5.224;2023-04-21T00:51:33;153812.0;;;20.03;40.33
33913;BME280;20200;52.084;5.224;2023-04-21T00:53:11;153815.0;;;20.05;40.24
33913;BME280;20200;52.084;5.224;2023-04-21T00:54:49;153825.0;;;20.09;40.07
33913;BME280;20200;52.084;5.224;2023-04-21T00:58:05;153830.0;;;20.11;40.04
33913;BME280;20200;52.084;5.224;2023-04-21T00:59:41;153805.0;;;20.02;40.24
33913;BME280;20200;52.084;5.224;2023-04-21T01:01:18;153839.0;;;20.14;40.1
33913;BME280;20200;52.084;5.224;2023-04-21T01:02:54;153822.0;;;20.07;40.24
33913;BME280;20200;52.084;5.224;2023-04-21T01:06:07;153783.0;;;19.93;40.74
33913;BME280;20200;52.084;5.224;2023-04-21T01:07:44;153828.0;;;20.11;40.25
33913;BME280;20200;52.084;5.224;2023-04-21T01:09:21;153659.0;;;19.43;41.11
33913;BME280;20200;52.084;5.224;2023-04-21T01:12:40;153755.0;;;19.81;40.74
33913;BME280;20200;52.084;5.224;2023-04-21T01:14:17;153798.0;;;19.98;40.53
33913;BME280;20200;52.084;5.224;2023-04-21T01:15:53;153795.0;;;19.97;40.76
33913;BME280;20200;52.084;5.224;2023-04-21T01:17:29;153776.0;;;19.89;40.57
33913;BME280;20200;52.084;5.224;2023-04-21T01:20:41;153765.0;;;19.86;40.94
33913;BME280;20200;52.084;5.224;2023-04-21T01:22:17;153843.0;;;20.16;40.31
33913;BME280;20200;52.084;5.224;2023-04-21T01:23:54;153760.0;;;19.84;40.62
33913;BME280;20200;52.084;5.224;2023-04-21T01:27:08;153780.0;;;19.91;40.44
33913;BME280;20200;52.084;5.224;2023-04-21T01:28:45;153823.0;;;20.09;40.65
33913;BME280;20200;52.084;5.224;2023-04-21T01:30:21;153778.0;;;19.91;40.98
33913;BME280;20200;52.084;5.224;2023-04-21T01:33:33;153842.0;;;20.16;40.51
33913;BME280;20200;52.084;5.224;2023-04-21T01:35:09;153830.0;;;20.11;40.67
33913;BME280;20200;52.084;5.224;2023-04-21T01:36:45;153829.0;;;20.11;40.67
33913;BME280;20200;52.084;5.224;2023-04-21T01:38:22;153829.0;;;20.11;40.65
33913;BME280;20200;52.084;5.224;2023-04-21T01:41:39;153869.0;;;20.27;40.46
33913;BME280;20200;52.084;5.224;2023-04-21T01:43:17;153907.0;;;20.41;40.25
33913;BME280;20200;52.084;5.224;2023-04-21T01:44:55;153837.0;;;20.13;40.82
33913;BME280;20200;52.084;5.224;2023-04-21T01:48:08;153842.0;;;20.16;40.74
33913;BME280;20200;52.084;5.224;2023-04-21T01:49:44;153873.0;;;20.28;40.43
33913;BME280;20200;52.084;5.224;2023-04-21T01:51:21;153900.0;;;20.38;40.24
33913;BME280;20200;52.084;5.224;2023-04-21T01:54:33;153836.0;;;20.13;40.81
33913;BME280;20200;52.084;5.224;2023-04-21T01:56:12;154012.0;;;20.83;39.28
33913;BME280;20200;52.084;5.224;2023-04-21T01:57:48;153967.0;;;20.65;39.65
33913;BME280;20200;52.084;5.224;2023-04-21T01:59:25;153949.0;;;20.58;39.81
33913;BME280;20200;52.084;5.224;2023-04-21T02:02:38;153942.0;;;20.55;39.92
33913;BME280;20200;52.084;5.224;2023-04-21T02:04:14;153965.0;;;20.64;39.74
33913;BME280;20200;52.084;5.224;2023-04-21T02:05:51;153999.0;;;20.77;39.69
33913;BME280;20200;52.084;5.224;2023-04-21T02:09:03;153990.0;;;20.74;39.65
33913;BME280;20200;52.084;5.224;2023-04-21T02:10:39;153938.0;;;20.53;40.11
33913;BME280;20200;52.084;5.224;2023-04-21T02:12:15;154003.0;;;20.79;39.72
33913;BME280;20200;52.084;5.224;2023-04-21T02:15:29;153970.0;;;20.66;39.96
33913;BME280;20200;52.084;5.224;2023-04-21T02:17:05;153994.0;;;20.75;39.68
33913;BME280;20200;52.084;5.224;2023-04-21T02:18:41;153969.0;;;20.66;39.81
33913;BME280;20200;52.084;5.224;2023-04-21T02:20:17;153927.0;;;20.49;40.19
33913;BME280;20200;52.084;5.224;2023-04-21T02:23:29;153979.0;;;20.69;39.79
33913;BME280;20200;52.084;5.224;2023-04-21T02:25:06;154014.0;;;20.83;39.42
33913;BME280;20200;52.084;5.224;2023-04-21T02:26:41;153965.0;;;20.64;39.92
33913;BME280;20200;52.084;5.224;2023-04-21T02:29:54;153845.0;;;20.18;40.92
33913;BME280;20200;52.084;5.224;2023-04-21T02:31:30;153972.0;;;20.67;40.1
33913;BME280;20200;52.084;5.224;2023-04-21T02:33:06;153971.0;;;20.66;39.92
33913;BME280;20200;52.084;5.224;2023-04-21T02:36:18;153864.0;;;20.25;40.79
33913;BME280;20200;52.084;5.224;2023-04-21T02:37:54;153864.0;;;20.25;40.83
33913;BME280;20200;52.084;5.224;2023-04-21T02:39:30;153892.0;;;20.36;40.62
33913;BME280;20200;52.084;5.224;2023-04-21T02:41:07;153875.0;;;20.28;40.82
33913;BME280;20200;52.084;5.224;2023-04-21T02:44:19;153926.0;;;20.48;40.53
33913;BME280;20200;52.084;5.224;2023-04-21T02:45:55;153848.0;;;20.18;40.9
33913;BME280;20200;52.084;5.224;2023-04-21T02:47:32;153900.0;;;20.38;40.65
33913;BME280;20200;52.084;5.224;2023-04-21T02:50:45;153902.0;;;20.39;40.82
33913;BME280;20200;52.084;5.224;2023-04-21T02:52:21;153981.0;;;20.7;40.11
33913;BME280;20200;52.084;5.224;2023-04-21T02:53:58;153852.0;;;20.2;40.89
33913;BME280;20200;52.084;5.224;2023-04-21T02:57:10;153855.0;;;20.21;41.03
33913;BME280;20200;52.084;5.224;2023-04-21T02:58:46;153868.0;;;20.27;41.0
33913;BME280;20200;52.084;5.224;2023-04-21T03:00:22;153909.0;;;20.43;40.64
33913;BME280;20200;52.084;5.224;2023-04-21T03:03:34;153890.0;;;20.34;40.82
33913;BME280;20200;52.084;5.224;2023-04-21T03:05:11;153885.0;;;20.32;40.81
33913;BME280;20200;52.084;5.224;2023-04-21T03:06:47;153875.0;;;20.28;40.92
33913;BME280;20200;52.084;5.224;2023-04-21T03:08:23;153873.0;;;20.28;40.89
33913;BME280;20200;52.084;5.224;2023-04-21T03:11:36;153883.0;;;20.32;40.85
33913;BME280;20200;52.084;5.224;2023-04-21T03:13:12;153868.0;;;20.25;41.0
33913;BME280;20200;52.084;5.224;2023-04-21T03:14:48;153885.0;;;20.32;40.86
33913;BME280;20200;52.084;5.224;2023-04-21T03:18:01;153821.0;;;20.07;41.14
33913;BME280;20200;52.084;5.224;2023-04-21T03:19:37;153784.0;;;19.93;41.65
33913;BME280;20200;52.084;5.224;2023-04-21T03:21:13;153858.0;;;20.22;41.23
33913;BME280;20200;52.084;5.224;2023-04-21T03:24:28;153812.0;;;20.04;41.38
33913;BME280;20200;52.084;5.224;2023-04-21T03:26:06;153780.0;;;19.91;41.87
33913;BME280;20200;52.084;5.224;2023-04-21T03:27:42;153798.0;;;19.98;41.68
33913;BME280;20200;52.084;5.224;2023-04-21T03:29:19;153847.0;;;20.18;41.29
33913;BME280;20200;52.084;5.224;2023-04-21T03:32:31;153915.0;;;20.45;40.85
33913;BME280;20200;52.084;5.224;2023-04-21T03:34:07;153859.0;;;20.22;41.2
33913;BME280;20200;52.084;5.224;2023-04-21T03:35:43;153870.0;;;20.27;41.18
33913;BME280;20200;52.084;5.224;2023-04-21T03:38:55;153873.0;;;20.27;41.16
33913;BME280;20200;52.084;5.224;2023-04-21T03:40:32;153898.0;;;20.37;41.0
33913;BME280;20200;52.084;5.224;2023-04-21T03:42:08;153863.0;;;20.23;41.22
33913;BME280;20200;52.084;5.224;2023-04-21T03:45:19;153829.0;;;20.11;41.57
33913;BME280;20200;52.084;5.224;2023-04-21T03:46:55;153846.0;;;20.18;41.48
33913;BME280;20200;52.084;5.224;2023-04-21T03:48:31;153852.0;;;20.2;41.33
33913;BME280;20200;52.084;5.224;2023-04-21T03:51:43;153874.0;;;20.28;41.14
33913;BME280;20200;52.084;5.224;2023-04-21T03:53:20;153966.0;;;20.64;40.51
33913;BME280;20200;52.084;5.224;2023-04-21T03:54:56;153863.0;;;20.25;41.2
33913;BME280;20200;52.084;5.224;2023-04-21T03:56:32;153811.0;;;20.03;41.77
33913;BME280;20200;52.084;5.224;2023-04-21T03:59:44;153764.0;;;19.84;42.19
33913;BME280;20200;52.084;5.224;2023-04-21T04:01:20;153816.0;;;20.05;41.75
33913;BME280;20200;52.084;5.224;2023-04-21T04:02:56;153858.0;;;20.22;41.4
33913;BME280;20200;52.084;5.224;2023-04-21T04:06:09;153767.0;;;19.86;41.97
33913;BME280;20200;52.084;5.224;2023-04-21T04:07:45;153826.0;;;20.09;41.7
33913;BME280;20200;52.084;5.224;2023-04-21T04:09:20;153822.0;;;20.07;41.81
33913;BME280;20200;52.084;5.224;2023-04-21T04:12:32;153789.0;;;19.95;42.01
33913;BME280;20200;52.084;5.224;2023-04-21T04:14:08;153746.0;;;19.77;42.36
33913;BME280;20200;52.084;5.224;2023-04-21T04:15:44;153869.0;;;20.27;41.45
33913;BME280;20200;52.084;5.224;2023-04-21T04:17:21;153877.0;;;20.29;41.23
33913;BME280;20200;52.084;5.224;2023-04-21T04:20:33;153867.0;;;20.25;41.37
33913;BME280;20200;52.084;5.224;2023-04-21T04:22:09;153766.0;;;19.86;42.06
33913;BME280;20200;52.084;5.224;2023-04-21T04:23:45;153750.0;;;19.79;42.19
33913;BME280;20200;52.084;5.224;2023-04-21T04:26:58;153830.0;;;20.11;41.42
33913;BME280;20200;52.084;5.224;2023-04-21T04:28:34;153664.0;;;19.45;42.7
33913;BME280;20200;52.084;5.224;2023-04-21T04:30:11;153750.0;;;19.79;42.2
33913;BME280;20200;52.084;5.224;2023-04-21T04:33:24;153754.0;;;19.8;42.29
33913;BME280;20200;52.084;5.224;2023-04-21T04:35:00;153826.0;;;20.09;41.7
33913;BME280;20200;52.084;5.224;2023-04-21T04:36:36;153798.0;;;19.98;41.92
33913;BME280;20200;52.084;5.224;2023-04-21T04:39:51;153777.0;;;19.91;42.1
33913;BME280;20200;52.084;5.224;2023-04-21T04:41:28;153832.0;;;20.11;41.71
33913;BME280;20200;52.084;5.224;2023-04-21T04:43:05;153708.0;;;19.62;42.23
33913;BME280;20200;52.084;5.224;2023-04-21T04:44:41;153778.0;;;19.91;42.17
33913;BME280;20200;52.084;5.224;2023-04-21T04:47:53;153759.0;;;19.82;41.99
33913;BME280;20200;52.084;5.224;2023-04-21T04:49:29;153701.0;;;19.61;42.93
33913;BME280;20200;52.084;5.224;2023-04-21T04:51:05;153896.0;;;20.37;41.32
33913;BME280;20200;52.084;5.224;2023-04-21T04:54:18;153809.0;;;20.02;41.99
33913;BME280;20200;52.084;5.224;2023-04-21T04:55:54;153726.0;;;19.7;42.46
33913;BME280;20200;52.084;5.224;2023-04-21T04:57:30;153802.0;;;20.0;42.06
33913;BME280;20200;52.084;5.224;2023-04-21T05:00:42;153781.0;;;19.91;42.25
33913;BME280;20200;52.084;5.224;2023-04-21T05:02:18;153759.0;;;19.82;42.25
33913;BME280;20200;52.084;5.224;2023-04-21T05:03:55;153799.0;;;19.98;41.87
33913;BME280;20200;52.084;5.224;2023-04-21T05:05:31;153842.0;;;20.16;41.81
33913;BME280;20200;52.084;5.224;2023-04-21T05:08:44;153834.0;;;20.12;41.83
33913;BME280;20200;52.084;5.224;2023-04-21T05:10:20;153805.0;;;20.02;42.03
33913;BME280;20200;52.084;5.224;2023-04-21T05:11:56;153766.0;;;19.86;42.31
33913;BME280;20200;52.084;5.224;2023-04-21T05:15:09;153741.0;;;19.75;42.65
33913;BME280;20200;52.084;5.224;2023-04-21T05:16:45;153742.0;;;19.77;42.3
33913;BME280;20200;52.084;5.224;2023-04-21T05:18:22;153827.0;;;20.09;41.86
33913;BME280;20200;52.084;5.224;2023-04-21T05:21:34;153828.0;;;20.11;41.84
33913;BME280;20200;52.084;5.224;2023-04-21T05:23:10;153831.0;;;20.11;41.88
33913;BME280;20200;52.084;5.224;2023-04-21T05:24:46;153883.0;;;20.32;41.53
33913;BME280;20200;52.084;5.224;2023-04-21T05:26:22;153814.0;;;20.04;41.67
33913;BME280;20200;52.084;5.224;2023-04-21T05:29:35;153863.0;;;20.23;41.18
33913;BME280;20200;52.084;5.224;2023-04-21T05:31:12;153845.0;;;20.18;41.71
33913;BME280;20200;52.084;5.224;2023-04-21T05:32:47;153883.0;;;20.32;41.48
33913;BME280;20200;52.084;5.224;2023-04-21T05:35:59;153986.0;;;20.72;40.69
33913;BME280;20200;52.084;5.224;2023-04-21T05:37:35;153916.0;;;20.45;41.22
33913;BME280;20200;52.084;5.224;2023-04-21T05:39:11;153900.0;;;20.38;41.44
33913;BME280;20200;52.084;5.224;2023-04-21T05:42:28;153757.0;;;19.82;42.51
33913;BME280;20200;52.084;5.224;2023-04-21T05:44:05;153789.0;;;19.95;42.32
33913;BME280;20200;52.084;5.224;2023-04-21T05:45:41;153799.0;;;19.98;42.6
33913;BME280;20200;52.084;5.224;2023-04-21T05:47:17;153808.0;;;20.02;42.47
33913;BME280;20200;52.084;5.224;2023-04-21T05:50:29;153809.0;;;20.02;42.33
33913;BME280;20200;52.084;5.224;2023-04-21T05:52:08;153646.0;;;19.38;43.45
33913;BME280;20200;52.084;5.224;2023-04-21T05:53:45;153890.0;;;20.34;42.16
33913;BME280;20200;52.084;5.224;2023-04-21T05:56:57;153821.0;;;20.07;42.56
33913;BME280;20200;52.084;5.224;2023-04-21T05:58:33;153898.0;;;20.37;42.16
33913;BME280;20200;52.084;5.224;2023-04-21T06:00:10;153895.0;;;20.36;42.33
33913;BME280;20200;52.084;5.224;2023-04-21T06:03:22;153906.0;;;20.41;42.27
33913;BME280;20200;52.084;5.224;2023-04-21T06:04:58;153931.0;;;20.5;41.92
33913;BME280;20200;52.084;5.224;2023-04-21T06:06:34;153909.0;;;20.43;42.19
33913;BME280;20200;52.084;5.224;2023-04-21T06:09:48;154004.0;;;20.79;41.53
33913;BME280;20200;52.084;5.224;2023-04-21T06:11:25;153861.0;;;20.23;42.66
33913;BME280;20200;52.084;5.224;2023-04-21T06:13:01;153942.0;;;20.55;42.03
33913;BME280;20200;52.084;5.224;2023-04-21T06:14:37;153830.0;;;20.11;42.98
33913;BME280;20200;52.084;5.224;2023-04-21T06:17:52;153867.0;;;20.25;42.92
33913;BME280;20200;52.084;5.224;2023-04-21T06:19:27;153798.0;;;19.98;43.28
33913;BME280;20200;52.084;5.224;2023-04-21T06:21:04;153785.0;;;19.93;43.31
33913;BME280;20200;52.084;5.224;2023-04-21T06:24:16;153992.0;;;20.75;42.07
33913;BME280;20200;52.084;5.224;2023-04-21T06:26:00;153910.0;;;20.43;42.68
33913;BME280;20200;52.084;5.224;2023-04-21T06:27:38;154031.0;;;20.9;41.8
33913;BME280;20200;52.084;5.224;2023-04-21T06:29:14;154057.0;;;21.0;41.58
33913;BME280;20200;52.084;5.224;2023-04-21T06:32:26;153979.0;;;20.7;42.3
33913;BME280;20200;52.084;5.224;2023-04-21T06:34:03;153957.0;;;20.61;42.43
33913;BME280;20200;52.084;5.224;2023-04-21T06:35:39;154017.0;;;20.85;42.16
33913;BME280;20200;52.084;5.224;2023-04-21T06:38:51;153954.0;;;20.6;42.6
33913;BME280;20200;52.084;5.224;2023-04-21T06:40:27;154107.0;;;21.2;41.67
33913;BME280;20200;52.084;5.224;2023-04-21T06:42:04;154050.0;;;20.98;42.16
33913;BME280;20200;52.084;5.224;2023-04-21T06:45:16;153998.0;;;20.77;42.55
33913;BME280;20200;52.084;5.224;2023-04-21T06:46:53;153940.0;;;20.54;42.8
33913;BME280;20200;52.084;5.224;2023-04-21T06:48:29;154084.0;;;21.11;41.8
33913;BME280;20200;52.084;5.224;2023-04-21T06:50:06;154136.0;;;21.32;41.32
33913;BME280;20200;52.084;5.224;2023-04-21T06:53:18;154067.0;;;21.05;42.02
33913;BME280;20200;52.084;5.224;2023-04-21T06:54:55;154114.0;;;21.23;41.51
33913;BME280;20200;52.084;5.224;2023-04-21T06:56:31;154074.0;;;21.07;42.09
33913;BME280;20200;52.084;5.224;2023-04-21T06:59:43;154158.0;;;21.4;41.57
33913;BME280;20200;52.084;5.224;2023-04-21T07:01:19;154192.0;;;21.54;41.56
33913;BME280;20200;52.084;5.224;2023-04-21T07:02:55;154245.0;;;21.75;41.51
33913;BME280;20200;52.084;5.224;2023-04-21T07:06:07;154218.0;;;21.64;41.63
33913;BME280;20200;52.084;5.224;2023-04-21T07:07:43;154260.0;;;21.81;41.61
33913;BME280;20200;52.084;5.224;2023-04-21T07:09:19;154361.0;;;22.21;40.96
33913;BME280;20200;52.084;5.224;2023-04-21T07:12:32;154096.0;;;21.16;42.41
33913;BME280;20200;52.084;5.224;2023-04-21T07:14:08;154291.0;;;21.93;41.46
33913;BME280;20200;52.084;5.224;2023-04-21T07:15:44;154251.0;;;21.77;41.5
33913;BME280;20200;52.084;5.224;2023-04-21T07:17:20;154334.0;;;22.1;40.85
33913;BME280;20200;52.084;5.224;2023-04-21T07:20:32;154136.0;;;21.32;42.16
33913;BME280;20200;52.084;5.224;2023-04-21T07:22:08;154151.0;;;21.38;41.93
33913;BME280;20200;52.084;5.224;2023-04-21T07:23:44;154099.0;;;21.17;42.65
33913;BME280;20200;52.084;5.224;2023-04-21T07:26:57;154302.0;;;21.97;41.34
33913;BME280;20200;52.084;5.224;2023-04-21T07:28:33;154372.0;;;22.25;41.12
33913;BME280;20200;52.084;5.224;2023-04-21T07:30:10;154320.0;;;22.05;41.4
33913;BME280;20200;52.084;5.224;2023-04-21T07:33:22;154325.0;;;22.07;41.45
33913;BME280;20200;52.084;5.224;2023-04-21T07:34:58;154140.0;;;21.33;42.34
33913;BME280;20200;52.084;5.224;2023-04-21T07:36:34;154158.0;;;21.4;42.09
33913;BME280;20200;52.084;5.224;2023-04-21T07:38:11;154081.0;;;21.1;42.57
33913;BME280;20200;52.084;5.224;2023-04-21T07:41:23;154361.0;;;22.21;41.22
33913;BME280;20200;52.084;5.224;2023-04-21T07:42:59;154247.0;;;21.76;41.33
33913;BME280;20200;52.084;5.224;2023-04-21T07:44:35;154424.0;;;22.46;40.6
33913;BME280;20200;52.084;5.224;2023-04-21T07:47:47;154429.0;;;22.48;40.75
33913;BME280;20200;52.084;5.224;2023-04-21T07:49:24;154348.0;;;22.16;41.33
33913;BME280;20200;52.084;5.224;2023-04-21T07:51:01;154275.0;;;21.87;41.18
33913;BME280;20200;52.084;5.224;2023-04-21T07:54:13;154220.0;;;21.65;41.73
33913;BME280;20200;52.084;5.224;2023-04-21T07:55:49;154422.0;;;22.45;40.81
33913;BME280;20200;52.084;5.224;2023-04-21T07:57:25;154393.0;;;22.33;40.81
33913;BME280;20200;52.084;5.224;2023-04-21T08:00:40;154591.0;;;23.12;39.49
33913;BME280;20200;52.084;5.224;2023-04-21T08:02:18;154671.0;;;23.43;38.94
33913;BME280;20200;52.084;5.224;2023-04-21T08:03:56;154687.0;;;23.5;39.28
33913;BME280;20200;52.084;5.224;2023-04-21T08:05:34;154460.0;;;22.6;40.46
33913;BME280;20200;52.084;5.224;2023-04-21T08:08:49;154406.0;;;22.38;40.17
33913;BME280;20200;52.084;5.224;2023-04-21T08:10:26;154460.0;;;22.6;39.42
33913;BME280;20200;52.084;5.224;2023-04-21T08:12:04;154601.0;;;23.16;39.04
33913;BME280;20200;52.084;5.224;2023-04-21T08:15:20;154558.0;;;22.98;38.72
33913;BME280;20200;52.084;5.224;2023-04-21T08:16:58;154581.0;;;23.08;39.28
33913;BME280;20200;52.084;5.224;2023-04-21T08:18:34;154517.0;;;22.82;39.57
33913;BME280;20200;52.084;5.224;2023-04-21T08:20:12;154576.0;;;23.06;39.64
33913;BME280;20200;52.084;5.224;2023-04-21T08:23:27;154735.0;;;23.69;38.71
33913;BME280;20200;52.084;5.224;2023-04-21T08:25:04;154655.0;;;23.37;39.28
33913;BME280;20200;52.084;5.224;2023-04-21T08:26:42;154611.0;;;23.2;39.03
33913;BME280;20200;52.084;5.224;2023-04-21T08:29:56;154742.0;;;23.71;37.96
33913;BME280;20200;52.084;5.224;2023-04-21T08:31:34;154769.0;;;23.82;37.78
33913;BME280;20200;52.084;5.224;2023-04-21T08:33:10;154868.0;;;24.21;37.79
33913;BME280;20200;52.084;5.224;2023-04-21T08:34:49;154777.0;;;23.85;38.17
33913;BME280;20200;52.084;5.224;2023-04-21T08:38:04;154839.0;;;24.1;37.68
33913;BME280;20200;52.084;5.224;2023-04-21T08:39:42;154820.0;;;24.02;37.33
33913;BME280;20200;52.084;5.224;2023-04-21T08:41:20;154862.0;;;24.19;37.61
33913;BME280;20200;52.084;5.224;2023-04-21T08:44:37;154706.0;;;23.57;38.21
33913;BME280;20200;52.084;5.224;2023-04-21T08:46:13;154550.0;;;22.96;38.74
33913;BME280;20200;52.084;5.224;2023-04-21T08:47:51;154693.0;;;23.52;38.24
33913;BME280;20200;52.084;5.224;2023-04-21T08:49:32;154687.0;;;23.5;38.37
33913;BME280;20200;52.084;5.224;2023-04-21T08:52:46;154659.0;;;23.38;38.19
33913;BME280;20200;52.084;5.224;2023-04-21T08:54:24;154691.0;;;23.51;37.74
33913;BME280;20200;52.084;5.224;2023-04-21T08:56:02;154910.0;;;24.38;37.1
33913;BME280;20200;52.084;5.224;2023-04-21T08:59:18;154822.0;;;24.03;36.72
33913;BME280;20200;52.084;5.224;2023-04-21T09:00:55;154908.0;;;24.37;36.24
33913;BME280;20200;52.084;5.224;2023-04-21T09:02:51;155015.0;;;24.79;36.17
33913;BME280;20200;52.084;5.224;2023-04-21T09:04:28;154920.0;;;24.42;36.42
33913;BME280;20200;52.084;5.224;2023-04-21T09:06:08;154867.0;;;24.21;36.56
33913;BME280;20200;52.084;5.224;2023-04-21T09:09:24;154779.0;;;23.86;36.35
33913;BME280;20200;52.084;5.224;2023-04-21T09:11:02;154928.0;;;24.45;36.9
33913;BME280;20200;52.084;5.224;2023-04-21T09:12:39;154982.0;;;24.66;36.42
33913;BME280;20200;52.084;5.224;2023-04-21T09:15:56;154877.0;;;24.25;36.69
33913;BME280;20200;52.084;5.224;2023-04-21T09:17:33;154978.0;;;24.65;36.57
33913;BME280;20200;52.084;5.224;2023-04-21T09:19:13;154765.0;;;23.81;36.83
33913;BME280;20200;52.084;5.224;2023-04-21T09:21:04;154702.0;;;23.56;36.43
33913;BME280;20200;52.084;5.224;2023-04-21T09:24:21;154691.0;;;23.51;36.71
33913;BME280;20200;52.084;5.224;2023-04-21T09:26:02;154594.0;;;23.13;37.17
33913;BME280;20200;52.084;5.224;2023-04-21T09:27:40;154720.0;;;23.63;36.6
33913;BME280;20200;52.084;5.224;2023-04-21T09:29:21;154655.0;;;23.37;36.92
33913;BME280;20200;52.084;5.224;2023-04-21T09:32:36;154720.0;;;23.63;36.47
33913;BME280;20200;52.084;5.224;2023-04-21T09:34:17;154754.0;;;23.76;36.12
33913;BME280;20200;52.084;5.224;2023-04-21T09:35:55;154865.0;;;24.2;35.67
33913;BME280;20200;52.084;5.224;2023-04-21T09:37:32;154885.0;;;24.28;36.72
33913;BME280;20200;52.084;5.224;2023-04-21T09:40:55;154673.0;;;23.44;36.78
33913;BME280;20200;52.084;5.224;2023-04-21T09:42:33;154912.0;;;24.38;37.25
33913;BME280;20200;52.084;5.224;2023-04-21T09:44:11;154867.0;;;24.21;36.65
33913;BME280;20200;52.084;5.224;2023-04-21T09:45:49;154705.0;;;23.57;36.96
33913;BME280;20200;52.084;5.224;2023-04-21T09:49:06;154870.0;;;24.22;35.39
33913;BME280;20200;52.084;5.224;2023-04-21T09:50:46;154881.0;;;24.26;36.44
33913;BME280;20200;52.084;5.224;2023-04-21T09:52:26;154919.0;;;24.41;35.31
33913;BME280;20200;52.084;5.224;2023-04-21T09:55:55;154954.0;;;24.55;35.0
33913;BME280;20200;52.084;5.224;2023-04-21T09:57:37;154912.0;;;24.39;35.69
33913;BME280;20200;52.084;5.224;2023-04-21T09:59:18;154982.0;;;24.66;35.14
33913;BME280;20200;52.084;5.224;2023-04-21T10:01:02;154995.0;;;24.71;35.01
33913;BME280;20200;52.084;5.224;2023-04-21T10:02:42;155105.0;;;25.15;35.31
33913;BME280;20200;52.084;5.224;2023-04-21T10:06:01;155153.0;;;25.34;35.86
33913;BME280;20200;52.084;5.224;2023-04-21T10:07:39;154997.0;;;24.72;35.74
33913;BME280;20200;52.084;5.224;2023-04-21T10:09:17;155051.0;;;24.94;35.36
33913;BME280;20200;52.084;5.224;2023-04-21T10:10:59;154914.0;;;24.39;35.92
33913;BME280;20200;52.084;5.224;2023-04-21T10:14:13;155327.0;;;26.02;33.56
33913;BME280;20200;52.084;5.224;2023-04-21T10:16:00;155137.0;;;25.27;35.14
33913;BME280;20200;52.084;5.224;2023-04-21T10:17:38;155095.0;;;25.11;34.76
33913;BME280;20200;52.084;5.224;2023-04-21T10:21:05;155129.0;;;25.24;34.31
33913;BME280;20200;52.084;5.224;2023-04-21T10:22:56;155203.0;;;25.54;34.47
33913;BME280;20200;52.084;5.224;2023-04-21T10:24:36;155254.0;;;25.74;35.17
33913;BME280;20200;52.084;5.224;2023-04-21T10:26:17;155200.0;;;25.52;34.08
33913;BME280;20200;52.084;5.224;2023-04-21T10:27:57;155211.0;;;25.56;34.35
33913;BME280;20200;52.084;5.224;2023-04-21T10:31:16;155058.0;;;24.96;34.75
33913;BME280;20200;52.084;5.224;2023-04-21T10:33:02;154935.0;;;24.48;35.37
33913;BME280;20200;52.084;5.224;2023-04-21T10:34:40;155164.0;;;25.38;35.18
33913;BME280;20200;52.084;5.224;2023-04-21T10:36:23;155167.0;;;25.39;35.1
33913;BME280;20200;52.084;5.224;2023-04-21T10:39:43;155074.0;;;25.03;35.03
33913;BME280;20200;52.084;5.224;2023-04-21T10:41:35;155115.0;;;25.19;34.14
33913;BME280;20200;52.084;5.224;2023-04-21T10:43:41;155044.0;;;24.91;34.35
33913;BME280;20200;52.084;5.224;2023-04-21T10:45:24;154894.0;;;24.32;34.29
33913;BME280;20200;52.084;5.224;2023-04-21T10:47:06;155038.0;;;24.88;34.67
33913;BME280;20200;52.084;5.224;2023-04-21T10:48:51;154977.0;;;24.64;34.79
33913;BME280;20200;52.084;5.224;2023-04-21T10:52:08;154843.0;;;24.11;35.1
33913;BME280;20200;52.084;5.224;2023-04-21T10:53:46;154721.0;;;23.63;35.64
33913;BME280;20200;52.084;5.224;2023-04-21T10:55:26;154821.0;;;24.03;35.76
33913;BME280;20200;52.084;5.224;2023-04-21T10:57:05;154849.0;;;24.14;35.81
33913;BME280;20200;52.084;5.224;2023-04-21T11:00:24;154940.0;;;24.5;35.47
33913;BME280;20200;52.084;5.224;2023-04-21T11:02:01;154910.0;;;24.38;34.42
33913;BME280;20200;52.084;5.224;2023-04-21T11:03:40;155011.0;;;24.78;33.92
33913;BME280;20200;52.084;5.224;2023-04-21T11:07:04;155064.0;;;24.98;34.83